createdAt,value
2017-07-09T00:00:19.717Z,20.30
2017-07-09T00:02:47.287Z,20.20
2017-07-09T00:05:14.817Z,20.20
2017-07-09T00:07:42.731Z,20.20
2017-07-09T00:10:10.272Z,20.20
2017-07-09T00:12:37.796Z,20.10
2017-07-09T00:15:05.364Z,20.10
2017-07-09T00:17:32.891Z,20.00
2017-07-09T00:20:00.566Z,20.00
2017-07-09T00:22:28.487Z,19.90
2017-07-09T00:24:56.048Z,19.90
2017-07-09T00:27:23.590Z,19.80
2017-07-09T00:29:51.174Z,19.70
2017-07-09T00:32:18.745Z,19.60
2017-07-09T00:34:46.276Z,19.50
2017-07-09T00:37:13.814Z,19.50
2017-07-09T00:39:41.382Z,19.40
2017-07-09T00:42:08.943Z,19.40
2017-07-09T00:44:36.460Z,19.40
2017-07-09T00:47:04.394Z,19.30
2017-07-09T00:49:31.932Z,19.40
2017-07-09T00:51:59.464Z,19.30
2017-07-09T00:54:27.017Z,19.30
2017-07-09T00:56:54.557Z,19.20
2017-07-09T00:59:22.510Z,19.10
2017-07-09T01:01:50.040Z,19.20
2017-07-09T01:04:17.570Z,19.10
2017-07-09T01:06:45.122Z,19.10
2017-07-09T01:09:12.652Z,19.10
2017-07-09T01:11:40.229Z,19.10
2017-07-09T01:14:07.767Z,19.10
2017-07-09T01:16:35.315Z,19.10
2017-07-09T01:19:02.856Z,19.10
2017-07-09T01:21:30.412Z,19.00
2017-07-09T01:23:57.946Z,18.90
2017-07-09T01:26:25.507Z,18.90
2017-07-09T01:28:53.055Z,18.80
2017-07-09T01:31:20.577Z,18.70
2017-07-09T01:33:48.123Z,18.70
2017-07-09T01:36:15.637Z,18.70
2017-07-09T01:38:43.182Z,18.60
2017-07-09T01:41:10.701Z,18.60
2017-07-09T01:43:38.252Z,18.60
2017-07-09T01:46:05.778Z,18.50
2017-07-09T01:48:33.307Z,18.50
2017-07-09T01:51:00.843Z,18.50
2017-07-09T01:53:28.365Z,18.50
2017-07-09T01:55:55.908Z,18.50
2017-07-09T01:58:23.436Z,18.50
2017-07-09T02:00:51.000Z,18.50
2017-07-09T02:03:18.531Z,18.50
2017-07-09T02:05:46.049Z,18.50
2017-07-09T02:08:13.601Z,18.50
2017-07-09T02:10:41.136Z,18.40
2017-07-09T02:13:08.691Z,18.40
2017-07-09T02:15:36.224Z,18.30
2017-07-09T02:18:03.780Z,18.30
2017-07-09T02:20:31.317Z,18.20
2017-07-09T02:22:58.852Z,18.20
2017-07-09T02:25:26.413Z,18.10
2017-07-09T02:27:53.930Z,18.10
2017-07-09T02:30:21.482Z,18.10
2017-07-09T02:32:49.026Z,18.10
2017-07-09T02:35:16.573Z,18.10
2017-07-09T02:37:44.097Z,18.10
2017-07-09T02:40:11.650Z,18.10
2017-07-09T02:42:39.188Z,18.00
2017-07-09T02:45:06.719Z,17.90
2017-07-09T02:47:34.268Z,17.80
2017-07-09T02:50:01.799Z,17.80
2017-07-09T02:52:29.343Z,17.80
2017-07-09T02:54:56.883Z,17.80
2017-07-09T02:57:24.437Z,17.80
2017-07-09T02:59:51.977Z,17.70
2017-07-09T03:02:19.941Z,17.70
2017-07-09T03:04:47.859Z,17.70
2017-07-09T03:07:15.385Z,17.70
2017-07-09T03:09:42.945Z,17.70
2017-07-09T03:12:10.472Z,17.70
2017-07-09T03:14:38.008Z,17.70
2017-07-09T03:17:05.545Z,17.70
2017-07-09T03:19:33.106Z,17.70
2017-07-09T03:22:00.654Z,17.70
2017-07-09T03:24:28.207Z,17.70
2017-07-09T03:26:55.731Z,17.70
2017-07-09T03:29:23.290Z,17.70
2017-07-09T03:31:51.265Z,17.60
2017-07-09T03:34:19.188Z,17.60
2017-07-09T03:36:46.730Z,17.60
2017-07-09T03:39:14.273Z,17.60
2017-07-09T03:41:41.817Z,17.50
2017-07-09T03:44:09.361Z,17.50
2017-07-09T03:46:37.303Z,17.50
2017-07-09T03:49:04.854Z,17.50
2017-07-09T03:51:32.376Z,17.40
2017-07-09T03:53:59.940Z,17.40
2017-07-09T03:56:27.464Z,17.40
2017-07-09T03:58:55.399Z,17.20
2017-07-09T04:01:22.947Z,17.30
2017-07-09T04:03:50.502Z,17.20
2017-07-09T04:06:18.041Z,17.20
2017-07-09T04:08:45.607Z,17.30
2017-07-09T04:11:13.173Z,17.30
2017-07-09T04:13:40.719Z,17.30
2017-07-09T04:16:08.294Z,17.30
2017-07-09T04:18:35.851Z,17.30
2017-07-09T04:21:03.404Z,17.30
2017-07-09T04:23:30.937Z,17.30
2017-07-09T04:25:58.488Z,17.30
2017-07-09T04:28:26.026Z,17.30
2017-07-09T04:30:53.984Z,17.40
2017-07-09T04:33:21.909Z,17.40
2017-07-09T04:35:49.445Z,17.40
2017-07-09T04:38:16.999Z,17.40
2017-07-09T04:40:44.533Z,17.30
2017-07-09T04:43:12.463Z,17.40
2017-07-09T04:45:39.988Z,17.40
2017-07-09T04:48:07.541Z,17.40
2017-07-09T04:50:35.089Z,17.40
2017-07-09T04:53:02.630Z,17.40
2017-07-09T04:55:30.557Z,17.50
2017-07-09T04:57:58.102Z,17.50
2017-07-09T05:00:25.649Z,17.50
2017-07-09T05:02:53.190Z,17.50
2017-07-09T05:05:20.736Z,17.60
2017-07-09T05:07:48.655Z,17.60
2017-07-09T05:10:16.216Z,17.60
2017-07-09T05:12:43.745Z,17.70
2017-07-09T05:15:11.302Z,17.70
2017-07-09T05:17:38.830Z,17.80
2017-07-09T05:20:06.352Z,17.80
2017-07-09T05:22:33.912Z,17.90
2017-07-09T05:25:01.453Z,18.00
2017-07-09T05:27:28.999Z,18.10
2017-07-09T05:29:56.528Z,18.20
2017-07-09T05:32:24.082Z,18.30
2017-07-09T05:34:51.996Z,18.30
2017-07-09T05:37:19.559Z,18.30
2017-07-09T05:39:47.106Z,18.40
2017-07-09T05:42:14.631Z,18.40
2017-07-09T05:44:42.569Z,18.50
2017-07-09T05:47:10.104Z,18.50
2017-07-09T05:49:37.658Z,18.60
2017-07-09T05:52:05.184Z,18.60
2017-07-09T05:54:32.740Z,18.60
2017-07-09T05:57:00.271Z,18.70
2017-07-09T05:59:27.820Z,18.80
2017-07-09T06:01:55.349Z,18.90
2017-07-09T06:04:22.881Z,19.10
2017-07-09T06:06:50.448Z,19.20
2017-07-09T06:09:17.990Z,19.30
2017-07-09T06:11:45.533Z,19.40
2017-07-09T06:14:13.076Z,19.50
2017-07-09T06:16:40.684Z,19.70
2017-07-09T06:19:08.207Z,19.90
2017-07-09T06:21:35.752Z,20.00
2017-07-09T06:24:03.345Z,20.10
2017-07-09T06:26:30.885Z,20.10
2017-07-09T06:28:58.441Z,20.30
2017-07-09T06:31:26.370Z,20.60
2017-07-09T06:33:53.938Z,20.60
2017-07-09T06:36:21.471Z,20.80
2017-07-09T06:38:49.013Z,21.00
2017-07-09T06:41:16.578Z,21.20
2017-07-09T06:43:44.105Z,21.30
2017-07-09T06:46:12.067Z,21.40
2017-07-09T06:48:40.001Z,21.50
2017-07-09T06:51:07.546Z,21.50
2017-07-09T06:53:35.072Z,21.50
2017-07-09T06:56:02.616Z,21.60
2017-07-09T06:58:30.155Z,21.60
2017-07-09T07:00:57.676Z,21.60
2017-07-09T07:03:25.255Z,21.60
2017-07-09T07:05:52.805Z,21.30
2017-07-09T07:08:20.345Z,21.30
2017-07-09T07:10:48.267Z,21.20
2017-07-09T07:13:16.228Z,21.10
2017-07-09T07:15:43.761Z,21.10
2017-07-09T07:18:11.371Z,21.20
2017-07-09T07:20:38.892Z,21.30
2017-07-09T07:23:06.419Z,21.30
2017-07-09T07:25:33.967Z,21.20
2017-07-09T07:28:01.508Z,21.30
2017-07-09T07:30:31.731Z,21.40
2017-07-09T07:32:59.265Z,21.40
2017-07-09T07:35:27.224Z,21.30
2017-07-09T07:37:54.756Z,21.30
2017-07-09T07:40:22.338Z,21.20
2017-07-09T07:42:49.871Z,21.10
2017-07-09T07:45:17.427Z,21.00
2017-07-09T07:47:44.968Z,21.00
2017-07-09T07:50:12.504Z,21.10
2017-07-09T07:52:40.081Z,21.10
2017-07-09T07:55:07.626Z,21.30
2017-07-09T07:57:35.168Z,21.40
2017-07-09T08:00:02.695Z,21.50
2017-07-09T08:02:30.237Z,21.60
2017-07-09T08:04:57.762Z,21.70
2017-07-09T08:07:25.287Z,21.80
2017-07-09T08:09:53.223Z,21.80
2017-07-09T08:12:20.753Z,21.80
2017-07-09T08:14:48.300Z,21.80
2017-07-09T08:17:15.833Z,21.90
2017-07-09T08:19:43.411Z,22.10
2017-07-09T08:22:10.945Z,22.20
2017-07-09T08:24:38.887Z,22.60
2017-07-09T08:27:06.417Z,22.60
2017-07-09T08:29:33.939Z,22.90
2017-07-09T08:32:01.497Z,23.00
2017-07-09T08:34:29.012Z,22.80
2017-07-09T08:36:56.552Z,22.80
2017-07-09T08:39:24.073Z,22.60
2017-07-09T08:41:51.653Z,22.50
2017-07-09T08:44:19.197Z,22.40
2017-07-09T08:46:46.742Z,22.40
2017-07-09T08:49:14.684Z,22.70
2017-07-09T08:51:42.270Z,22.70
2017-07-09T08:54:09.781Z,23.00
2017-07-09T08:56:37.342Z,23.20
2017-07-09T08:59:04.936Z,23.20
2017-07-09T09:01:32.525Z,23.10
2017-07-09T09:04:00.158Z,23.30
2017-07-09T09:06:27.711Z,23.40
2017-07-09T09:08:55.652Z,23.50
2017-07-09T09:11:23.175Z,23.60
2017-07-09T09:13:50.867Z,23.50
2017-07-09T09:16:18.403Z,23.60
2017-07-09T09:18:45.952Z,23.60
2017-07-09T09:21:13.636Z,23.70
2017-07-09T09:23:41.159Z,23.80
2017-07-09T09:26:08.868Z,24.00
2017-07-09T09:28:36.399Z,24.20
2017-07-09T09:31:03.944Z,24.30
2017-07-09T09:33:31.484Z,24.40
2017-07-09T09:35:59.435Z,24.50
2017-07-09T09:38:27.376Z,24.40
2017-07-09T09:40:55.328Z,24.30
2017-07-09T09:43:22.866Z,24.30
2017-07-09T09:45:50.401Z,24.30
2017-07-09T09:48:18.349Z,24.30
2017-07-09T09:50:45.882Z,24.30
2017-07-09T09:53:13.444Z,24.30
2017-07-09T09:55:40.965Z,24.30
2017-07-09T09:58:08.506Z,24.30
2017-07-09T10:00:36.473Z,24.30
2017-07-09T10:03:04.508Z,24.20
2017-07-09T10:05:32.450Z,24.30
2017-07-09T10:07:59.965Z,24.20
2017-07-09T10:10:27.910Z,24.40
2017-07-09T10:12:55.424Z,24.40
2017-07-09T10:15:22.969Z,24.50
2017-07-09T10:17:50.516Z,24.70
2017-07-09T10:20:18.051Z,24.70
2017-07-09T10:22:45.983Z,24.50
2017-07-09T10:25:13.505Z,24.40
2017-07-09T10:27:41.067Z,24.30
2017-07-09T10:30:08.595Z,24.20
2017-07-09T10:32:36.552Z,24.10
2017-07-09T10:35:04.085Z,24.20
2017-07-09T10:37:31.609Z,24.20
2017-07-09T10:39:59.165Z,24.30
2017-07-09T10:42:26.692Z,24.40
2017-07-09T10:44:54.252Z,24.60
2017-07-09T10:47:21.779Z,24.90
2017-07-09T10:49:49.325Z,25.00
2017-07-09T10:52:16.849Z,25.20
2017-07-09T10:54:44.413Z,25.30
2017-07-09T10:57:11.948Z,25.50
2017-07-09T10:59:39.477Z,25.60
2017-07-09T11:02:07.032Z,25.60
2017-07-09T11:04:34.551Z,25.50
2017-07-09T11:07:02.097Z,25.40
2017-07-09T11:09:29.620Z,25.50
2017-07-09T11:11:57.162Z,25.60
2017-07-09T11:14:24.685Z,25.80
2017-07-09T11:16:52.233Z,25.90
2017-07-09T11:19:19.775Z,26.10
2017-07-09T11:21:47.318Z,26.20
2017-07-09T11:24:14.864Z,26.30
2017-07-09T11:26:42.405Z,26.40
2017-07-09T11:29:09.946Z,26.40
2017-07-09T11:31:37.480Z,26.40
2017-07-09T11:34:05.021Z,26.40
2017-07-09T11:36:32.940Z,26.60
2017-07-09T11:39:00.509Z,26.60
2017-07-09T11:41:28.035Z,26.80
2017-07-09T11:43:55.548Z,26.80
2017-07-09T11:46:23.112Z,26.80
2017-07-09T11:48:50.644Z,26.80
2017-07-09T11:51:18.181Z,26.80
2017-07-09T11:53:45.711Z,26.90
2017-07-09T11:56:13.248Z,26.80
2017-07-09T11:58:41.170Z,27.00
2017-07-09T12:01:08.715Z,27.00
2017-07-09T12:03:36.227Z,26.90
2017-07-09T12:06:04.157Z,26.90
2017-07-09T12:08:31.704Z,26.90
2017-07-09T12:10:59.226Z,26.70
2017-07-09T12:13:27.159Z,26.20
2017-07-09T12:15:54.692Z,26.20
2017-07-09T12:18:22.223Z,26.00
2017-07-09T12:20:49.753Z,25.80
2017-07-09T12:23:17.347Z,25.80
2017-07-09T12:25:44.865Z,26.00
2017-07-09T12:28:12.388Z,26.20
2017-07-09T12:30:39.935Z,26.40
2017-07-09T12:33:07.469Z,26.60
2017-07-09T12:35:35.029Z,26.80
2017-07-09T12:38:02.561Z,26.90
2017-07-09T12:40:30.506Z,26.80
2017-07-09T12:42:58.040Z,26.80
2017-07-09T12:45:25.585Z,26.80
2017-07-09T12:47:53.121Z,26.90
2017-07-09T12:50:20.662Z,26.80
2017-07-09T12:52:48.600Z,26.80
2017-07-09T12:55:16.121Z,26.80
2017-07-09T12:57:43.673Z,27.00
2017-07-09T13:00:11.204Z,27.00
2017-07-09T13:02:39.143Z,26.90
2017-07-09T13:05:06.664Z,26.90
2017-07-09T13:07:34.238Z,26.90
2017-07-09T13:10:01.765Z,26.90
2017-07-09T13:12:29.309Z,26.90
2017-07-09T13:14:57.246Z,27.30
2017-07-09T13:17:24.769Z,27.30
2017-07-09T13:19:52.304Z,27.30
2017-07-09T13:22:19.862Z,27.30
2017-07-09T13:24:47.411Z,27.20
2017-07-09T13:27:15.317Z,27.40
2017-07-09T13:29:42.849Z,27.40
2017-07-09T13:32:10.389Z,27.50
2017-07-09T13:34:38.336Z,27.60
2017-07-09T13:37:05.872Z,27.60
2017-07-09T13:39:33.517Z,27.60
2017-07-09T13:42:01.098Z,27.70
2017-07-09T13:44:28.640Z,27.70
2017-07-09T13:46:56.198Z,27.80
2017-07-09T13:49:23.737Z,27.90
2017-07-09T13:51:51.393Z,27.80
2017-07-09T13:54:18.929Z,27.70
2017-07-09T13:56:46.909Z,27.60
2017-07-09T13:59:14.434Z,27.60
2017-07-09T14:01:41.991Z,27.60
2017-07-09T14:04:09.520Z,27.70
2017-07-09T14:06:37.120Z,27.70
2017-07-09T14:09:04.633Z,27.70
2017-07-09T14:11:32.172Z,27.70
2017-07-09T14:13:59.724Z,27.60
2017-07-09T14:16:27.269Z,27.50
2017-07-09T14:18:54.849Z,27.50
2017-07-09T14:21:22.372Z,27.50
2017-07-09T14:23:49.909Z,27.40
2017-07-09T14:26:17.508Z,27.30
2017-07-09T14:28:45.069Z,27.30
2017-07-09T14:31:12.600Z,27.20
2017-07-09T14:33:40.150Z,27.10
2017-07-09T14:36:07.683Z,27.10
2017-07-09T14:38:35.231Z,27.20
2017-07-09T14:41:02.800Z,27.30
2017-07-09T14:43:30.368Z,27.40
2017-07-09T14:45:57.926Z,27.30
2017-07-09T14:48:25.462Z,27.20
2017-07-09T14:50:53.003Z,27.10
2017-07-09T14:53:20.532Z,26.90
2017-07-09T14:55:48.093Z,26.90
2017-07-09T14:58:16.011Z,27.10
2017-07-09T15:00:43.579Z,27.10
2017-07-09T15:03:11.103Z,27.20
2017-07-09T15:05:38.657Z,27.20
2017-07-09T15:08:06.201Z,27.20
2017-07-09T15:10:34.108Z,27.30
2017-07-09T15:13:01.640Z,27.30
2017-07-09T15:15:29.169Z,27.30
2017-07-09T15:17:56.705Z,27.30
2017-07-09T15:20:26.414Z,27.20
2017-07-09T15:22:53.963Z,27.20
2017-07-09T15:25:21.541Z,27.30
2017-07-09T15:27:49.065Z,27.20
2017-07-09T15:30:16.652Z,27.30
2017-07-09T15:32:44.245Z,27.30
2017-07-09T15:35:12.155Z,27.30
2017-07-09T15:37:39.788Z,27.30
2017-07-09T15:40:07.417Z,27.40
2017-07-09T15:42:35.068Z,27.40
2017-07-09T15:45:02.684Z,27.50
2017-07-09T15:47:30.247Z,27.40
2017-07-09T15:49:57.867Z,27.40
2017-07-09T15:52:27.646Z,27.40
2017-07-09T15:54:55.201Z,27.40
2017-07-09T15:57:22.730Z,27.20
2017-07-09T15:59:50.420Z,27.20
2017-07-09T16:02:17.995Z,27.10
2017-07-09T16:04:45.721Z,27.10
2017-07-09T16:07:13.432Z,27.10
2017-07-09T16:09:41.496Z,27.10
2017-07-09T16:12:09.524Z,27.10
2017-07-09T16:14:37.200Z,27.10
2017-07-09T16:17:04.771Z,27.10
2017-07-09T16:19:32.358Z,27.10
2017-07-09T16:22:00.003Z,27.10
2017-07-09T16:24:27.550Z,27.10
2017-07-09T16:26:55.563Z,27.10
2017-07-09T16:29:23.208Z,27.10
2017-07-09T16:31:51.667Z,27.10
2017-07-09T16:34:19.279Z,27.10
2017-07-09T16:36:47.168Z,27.10
2017-07-09T16:39:14.817Z,27.10
2017-07-09T16:41:42.435Z,27.10
2017-07-09T16:44:10.387Z,27.00
2017-07-09T16:46:37.970Z,27.00
2017-07-09T16:49:05.928Z,26.90
2017-07-09T16:51:33.963Z,26.80
2017-07-09T16:54:01.572Z,26.90
2017-07-09T16:56:29.273Z,26.80
2017-07-09T16:58:56.913Z,26.80
2017-07-09T17:01:24.521Z,26.80
2017-07-09T17:03:52.542Z,26.80
2017-07-09T17:06:20.538Z,26.70
2017-07-09T17:08:48.120Z,26.70
2017-07-09T17:11:15.767Z,26.70
2017-07-09T17:13:43.395Z,26.60
2017-07-09T17:16:11.005Z,26.60
2017-07-09T17:18:39.450Z,26.60
2017-07-09T17:21:07.170Z,26.60
2017-07-09T17:23:34.780Z,26.60
2017-07-09T17:26:02.466Z,26.60
2017-07-09T17:28:30.028Z,26.50
2017-07-09T17:30:57.973Z,26.50
2017-07-09T17:33:25.544Z,26.50
2017-07-09T17:35:53.090Z,26.50
2017-07-09T17:38:20.649Z,26.40
2017-07-09T17:40:48.179Z,26.50
2017-07-09T17:43:15.731Z,26.40
2017-07-09T17:45:43.251Z,26.40
2017-07-09T17:48:11.247Z,26.40
2017-07-09T17:50:38.760Z,26.40
2017-07-09T17:53:06.284Z,26.40
2017-07-09T17:55:33.819Z,26.40
2017-07-09T17:58:01.474Z,26.40
2017-07-09T18:00:29.023Z,26.30
2017-07-09T18:02:56.668Z,26.30
2017-07-09T18:05:24.763Z,26.30
2017-07-09T18:07:52.297Z,26.30
2017-07-09T18:10:20.382Z,26.20
2017-07-09T18:12:47.928Z,26.20
2017-07-09T18:15:15.880Z,26.20
2017-07-09T18:17:43.561Z,26.20
2017-07-09T18:20:11.173Z,26.10
2017-07-09T18:22:38.799Z,26.10
2017-07-09T18:25:06.438Z,26.10
2017-07-09T18:27:33.986Z,26.10
2017-07-09T18:30:01.948Z,26.00
2017-07-09T18:32:29.693Z,26.00
2017-07-09T18:34:57.240Z,26.00
2017-07-09T18:37:24.945Z,25.90
2017-07-09T18:39:52.620Z,25.90
2017-07-09T18:42:20.746Z,25.80
2017-07-09T18:44:48.306Z,25.80
2017-07-09T18:47:16.024Z,25.70
2017-07-09T18:49:43.561Z,25.70
2017-07-09T18:52:11.517Z,25.60
2017-07-09T18:54:39.702Z,25.60
2017-07-09T18:57:07.483Z,25.60
2017-07-09T18:59:35.033Z,25.50
2017-07-09T19:02:02.963Z,25.40
2017-07-09T19:04:30.505Z,25.40
2017-07-09T19:06:58.072Z,25.40
2017-07-09T19:09:25.616Z,25.30
2017-07-09T19:11:53.295Z,25.20
2017-07-09T19:14:20.849Z,25.20
2017-07-09T19:16:48.397Z,25.10
2017-07-09T19:19:15.947Z,25.00
2017-07-09T19:21:43.493Z,25.00
2017-07-09T19:24:11.030Z,24.90
2017-07-09T19:26:39.610Z,24.90
2017-07-09T19:29:07.841Z,24.80
2017-07-09T19:31:35.496Z,24.80
2017-07-09T19:34:03.040Z,24.70
2017-07-09T19:36:30.561Z,24.60
2017-07-09T19:38:58.084Z,24.50
2017-07-09T19:41:25.629Z,24.50
2017-07-09T19:43:53.152Z,24.40
2017-07-09T19:46:20.710Z,24.40
2017-07-09T19:48:48.244Z,24.30
2017-07-09T19:51:16.204Z,24.20
2017-07-09T19:53:43.742Z,24.30
2017-07-09T19:56:11.285Z,24.20
2017-07-09T19:58:38.813Z,24.20
2017-07-09T20:01:06.356Z,24.10
2017-07-09T20:03:33.899Z,24.10
2017-07-09T20:06:04.163Z,24.10
2017-07-09T20:08:35.656Z,24.10
2017-07-09T20:11:03.194Z,24.10
2017-07-09T20:13:30.819Z,24.00
2017-07-09T20:15:58.414Z,24.00
2017-07-09T20:18:25.984Z,24.00
2017-07-09T20:20:53.554Z,24.00
2017-07-09T20:23:21.123Z,24.00
2017-07-09T20:25:50.638Z,23.90
2017-07-09T20:28:18.598Z,23.90
2017-07-09T20:30:46.164Z,23.90
2017-07-09T20:33:14.102Z,23.80
2017-07-09T20:35:41.660Z,23.80
2017-07-09T20:38:09.221Z,23.80
2017-07-09T20:40:36.785Z,23.70
2017-07-09T20:43:04.304Z,23.70
2017-07-09T20:45:31.840Z,23.70
2017-07-09T20:47:59.420Z,23.60
2017-07-09T20:50:27.108Z,23.60
2017-07-09T20:52:54.641Z,23.50
2017-07-09T20:55:22.173Z,23.50
2017-07-09T20:57:49.711Z,23.40
2017-07-09T21:00:17.654Z,23.30
2017-07-09T21:02:45.202Z,23.40
2017-07-09T21:05:12.858Z,23.30
2017-07-09T21:07:40.401Z,23.20
2017-07-09T21:10:07.937Z,23.10
2017-07-09T21:12:35.502Z,23.10
2017-07-09T21:15:03.035Z,23.00
2017-07-09T21:17:30.960Z,23.00
2017-07-09T21:19:58.517Z,23.00
2017-07-09T21:22:26.046Z,22.90
2017-07-09T21:24:53.582Z,22.90
2017-07-09T21:27:21.132Z,22.90
2017-07-09T21:29:48.839Z,22.80
2017-07-09T21:32:16.377Z,22.80
2017-07-09T21:34:43.936Z,22.80
2017-07-09T21:37:11.566Z,22.80
2017-07-09T21:39:39.156Z,22.80
2017-07-09T21:42:06.694Z,22.80
2017-07-09T21:44:34.252Z,22.80
2017-07-09T21:47:02.239Z,22.70
2017-07-09T21:49:29.800Z,22.70
2017-07-09T21:51:57.339Z,22.60
2017-07-09T21:54:25.255Z,22.60
2017-07-09T21:56:52.820Z,22.60
2017-07-09T21:59:20.360Z,22.60
2017-07-09T22:01:47.888Z,22.50
2017-07-09T22:04:15.435Z,22.50
2017-07-09T22:06:43.413Z,22.50
2017-07-09T22:09:10.950Z,22.50
2017-07-09T22:11:38.496Z,22.50
2017-07-09T22:14:06.129Z,22.40
2017-07-09T22:16:33.661Z,22.40
2017-07-09T22:19:01.210Z,22.40
2017-07-09T22:21:28.754Z,22.30
2017-07-09T22:23:56.286Z,22.30
2017-07-09T22:26:23.839Z,22.30
2017-07-09T22:28:51.372Z,22.20
2017-07-09T22:31:18.941Z,22.20
2017-07-09T22:33:46.455Z,22.30
2017-07-09T22:36:14.026Z,22.30
2017-07-09T22:38:41.556Z,22.30
2017-07-09T22:41:09.532Z,22.30
2017-07-09T22:43:37.453Z,22.30
2017-07-09T22:46:04.997Z,22.30
2017-07-09T22:48:32.551Z,22.30
2017-07-09T22:51:00.105Z,22.30
2017-07-09T22:53:27.653Z,22.30
2017-07-09T22:55:55.179Z,22.30
2017-07-09T22:58:23.146Z,22.20
2017-07-09T23:00:51.081Z,22.20
2017-07-09T23:03:18.635Z,22.20
2017-07-09T23:05:46.163Z,22.10
2017-07-09T23:08:13.749Z,21.80
2017-07-09T23:10:41.285Z,21.30
2017-07-09T23:13:08.809Z,20.70
2017-07-09T23:15:36.738Z,19.90
2017-07-09T23:18:04.261Z,20.00
2017-07-09T23:20:31.806Z,19.70
2017-07-09T23:22:59.336Z,19.60
2017-07-09T23:25:26.891Z,19.40
2017-07-09T23:27:54.416Z,19.30
2017-07-09T23:30:21.993Z,19.30
2017-07-09T23:32:49.529Z,19.20
2017-07-09T23:35:17.088Z,19.20
2017-07-09T23:37:44.611Z,19.20
2017-07-09T23:40:12.560Z,19.20
2017-07-09T23:42:40.494Z,19.10
2017-07-09T23:45:08.129Z,19.20
2017-07-09T23:47:35.669Z,19.10
2017-07-09T23:50:03.196Z,18.90
2017-07-09T23:52:30.766Z,18.90
2017-07-09T23:54:58.705Z,18.80
2017-07-09T23:57:26.263Z,18.80
2017-07-09T23:59:53.805Z,18.70
